sensor_id;sensor_type;location;lat;lon;timestamp;pressure;altitude;pressure_sealevel;temperature;humidity
55068;BME280;40965;52.368;9.712;2023-04-27T00:00:29;101241.97;;;5.33;83.34
55068;BME280;40965;52.368;9.712;2023-04-27T00:02:56;101237.59;;;5.30;83.54
55068;BME280;40965;52.368;9.712;2023-04-27T00:05:22;101241.91;;;5.29;83.92
55068;BME280;40965;52.368;9.712;2023-04-27T00:07:49;101230.59;;;5.26;83.87
55068;BME280;40965;52.368;9.712;2023-04-27T00:10:15;101237.38;;;5.21;84.31
55068;BME280;40965;52.368;9.712;2023-04-27T00:12:41;101232.97;;;5.17;84.81
55068;BME280;40965;52.368;9.712;2023-04-27T00:15:09;101237.25;;;5.14;85.65
55068;BME280;40965;52.368;9.712;2023-04-27T00:17:35;101235.56;;;5.17;85.56
55068;BME280;40965;52.368;9.712;2023-04-27T00:20:02;101236.44;;;5.17;85.41
55068;BME280;40965;52.368;9.712;2023-04-27T00:22:32;101233.84;;;5.17;85.67
55068;BME280;40965;52.368;9.712;2023-04-27T00:24:59;101238.19;;;5.18;85.67
55068;BME280;40965;52.368;9.712;2023-04-27T00:27:25;101239.03;;;5.17;85.84
55068;BME280;40965;52.368;9.712;2023-04-27T00:29:52;101233.88;;;5.19;85.87
55068;BME280;40965;52.368;9.712;2023-04-27T00:32:18;101230.44;;;5.20;85.78
55068;BME280;40965;52.368;9.712;2023-04-27T00:34:45;101227.84;;;5.20;85.62
55068;BME280;40965;52.368;9.712;2023-04-27T00:37:11;101233.94;;;5.20;85.71
55068;BME280;40965;52.368;9.712;2023-04-27T00:39:38;101233.06;;;5.21;85.13
55068;BME280;40965;52.368;9.712;2023-04-27T00:42:04;101239.16;;;5.22;85.07
55068;BME280;40965;52.368;9.712;2023-04-27T00:44:35;101237.44;;;5.24;85.25
55068;BME280;40965;52.368;9.712;2023-04-27T00:47:02;101238.31;;;5.23;84.77
55068;BME280;40965;52.368;9.712;2023-04-27T00:49:29;101232.22;;;5.22;84.95
55068;BME280;40965;52.368;9.712;2023-04-27T00:51:55;101238.25;;;5.21;85.16
55068;BME280;40965;52.368;9.712;2023-04-27T00:54:22;101238.19;;;5.18;85.11
55068;BME280;40965;52.368;9.712;2023-04-27T00:56:49;101238.03;;;5.12;85.69
55068;BME280;40965;52.368;9.712;2023-04-27T00:59:17;101235.28;;;5.04;85.23
55068;BME280;40965;52.368;9.712;2023-04-27T01:01:48;101241.97;;;4.94;85.93
55068;BME280;40965;52.368;9.712;2023-04-27T01:04:15;101245.19;;;4.84;86.57
55068;BME280;40965;52.368;9.712;2023-04-27T01:06:42;101243.97;;;4.70;87.23
55068;BME280;40965;52.368;9.712;2023-04-27T01:09:08;101245.44;;;4.58;87.60
55068;BME280;40965;52.368;9.712;2023-04-27T01:11:35;101242.59;;;4.49;88.18
55068;BME280;40965;52.368;9.712;2023-04-27T01:14:03;101240.69;;;4.42;88.72
55068;BME280;40965;52.368;9.712;2023-04-27T01:16:31;101248.38;;;4.39;89.50
55068;BME280;40965;52.368;9.712;2023-04-27T01:18:59;101250.88;;;4.34;89.54
55068;BME280;40965;52.368;9.712;2023-04-27T01:21:25;101243.09;;;4.34;90.03
55068;BME280;40965;52.368;9.712;2023-04-27T01:23:53;101245.59;;;4.31;89.70
55068;BME280;40965;52.368;9.712;2023-04-27T01:26:19;101255.06;;;4.29;89.89
55068;BME280;40965;52.368;9.712;2023-04-27T01:28:47;101256.69;;;4.25;90.86
55068;BME280;40965;52.368;9.712;2023-04-27T01:31:13;101260.09;;;4.24;90.83
55068;BME280;40965;52.368;9.712;2023-04-27T01:33:41;101268.63;;;4.20;91.12
55068;BME280;40965;52.368;9.712;2023-04-27T01:36:08;101269.41;;;4.16;91.56
55068;BME280;40965;52.368;9.712;2023-04-27T01:38:35;101275.28;;;4.10;91.43
55068;BME280;40965;52.368;9.712;2023-04-27T01:41:05;101269.81;;;4.00;91.72
55068;BME280;40965;52.368;9.712;2023-04-27T01:43:33;101278.22;;;3.92;92.08
55068;BME280;40965;52.368;9.712;2023-04-27T01:46:08;101278.81;;;3.82;91.99
55068;BME280;40965;52.368;9.712;2023-04-27T01:48:37;101288.97;;;3.74;92.81
55068;BME280;40965;52.368;9.712;2023-04-27T01:51:04;101282.63;;;3.64;93.48
55068;BME280;40965;52.368;9.712;2023-04-27T01:53:31;101290.25;;;3.60;93.97
55068;BME280;40965;52.368;9.712;2023-04-27T01:55:57;101301.28;;;3.54;94.43
55068;BME280;40965;52.368;9.712;2023-04-27T01:58:24;101304.59;;;3.48;94.36
55068;BME280;40965;52.368;9.712;2023-04-27T02:00:52;101311.38;;;3.45;95.08
55068;BME280;40965;52.368;9.712;2023-04-27T02:03:18;101311.13;;;3.37;95.28
55068;BME280;40965;52.368;9.712;2023-04-27T02:05:45;101318.75;;;3.33;95.68
55068;BME280;40965;52.368;9.712;2023-04-27T02:08:12;101321.97;;;3.25;95.96
55068;BME280;40965;52.368;9.712;2023-04-27T02:10:40;101326.03;;;3.17;95.93
55068;BME280;40965;52.368;9.712;2023-04-27T02:13:06;101329.25;;;3.10;96.60
55068;BME280;40965;52.368;9.712;2023-04-27T02:15:33;101328.22;;;3.05;97.16
55068;BME280;40965;52.368;9.712;2023-04-27T02:18:01;101333.25;;;3.00;97.48
55068;BME280;40965;52.368;9.712;2023-04-27T02:20:29;101333.09;;;2.95;97.83
55068;BME280;40965;52.368;9.712;2023-04-27T02:22:56;101330.41;;;2.92;98.55
55068;BME280;40965;52.368;9.712;2023-04-27T02:25:23;101334.59;;;2.89;98.61
55068;BME280;40965;52.368;9.712;2023-04-27T02:27:50;101336.19;;;2.85;99.43
55068;BME280;40965;52.368;9.712;2023-04-27T02:30:17;101340.44;;;2.83;99.14
55068;BME280;40965;52.368;9.712;2023-04-27T02:32:44;101341.16;;;2.79;99.68
55068;BME280;40965;52.368;9.712;2023-04-27T02:35:10;101329.69;;;2.71;99.34
55068;BME280;40965;52.368;9.712;2023-04-27T02:37:37;101337.28;;;2.66;100.00
55068;BME280;40965;52.368;9.712;2023-04-27T02:40:04;101339.75;;;2.63;100.00
55068;BME280;40965;52.368;9.712;2023-04-27T02:42:32;101336.03;;;2.55;100.00
55068;BME280;40965;52.368;9.712;2023-04-27T02:44:58;101327.22;;;2.50;100.00
55068;BME280;40965;52.368;9.712;2023-04-27T02:47:25;101331.34;;;2.44;100.00
55068;BME280;40965;52.368;9.712;2023-04-27T02:49:52;101326.03;;;2.40;100.00
55068;BME280;40965;52.368;9.712;2023-04-27T02:52:18;101319.81;;;2.35;100.00
55068;BME280;40965;52.368;9.712;2023-04-27T02:54:44;101329.22;;;2.33;100.00
55068;BME280;40965;52.368;9.712;2023-04-27T02:57:11;101334.22;;;2.28;100.00
55068;BME280;40965;52.368;9.712;2023-04-27T02:59:37;101325.50;;;2.24;100.00
55068;BME280;40965;52.368;9.712;2023-04-27T03:02:04;101323.72;;;2.23;100.00
55068;BME280;40965;52.368;9.712;2023-04-27T03:04:30;101323.78;;;2.25;100.00
55068;BME280;40965;52.368;9.712;2023-04-27T03:06:57;101327.31;;;2.27;100.00
55068;BME280;40965;52.368;9.712;2023-04-27T03:09:23;101323.78;;;2.25;100.00
55068;BME280;40965;52.368;9.712;2023-04-27T03:11:50;101322.00;;;2.24;100.00
55068;BME280;40965;52.368;9.712;2023-04-27T03:14:16;101322.91;;;2.24;100.00
55068;BME280;40965;52.368;9.712;2023-04-27T03:16:43;101320.19;;;2.21;100.00
55068;BME280;40965;52.368;9.712;2023-04-27T03:19:12;101326.31;;;2.23;100.00
55068;BME280;40965;52.368;9.712;2023-04-27T03:21:39;101322.84;;;2.23;100.00
55068;BME280;40965;52.368;9.712;2023-04-27T03:24:06;101326.31;;;2.23;100.00
55068;BME280;40965;52.368;9.712;2023-04-27T03:26:32;101330.66;;;2.24;100.00
55068;BME280;40965;52.368;9.712;2023-04-27T03:28:58;101333.31;;;2.26;100.00
55068;BME280;40965;52.368;9.712;2023-04-27T03:31:25;101333.31;;;2.26;100.00
55068;BME280;40965;52.368;9.712;2023-04-27T03:33:52;101339.34;;;2.26;100.00
55068;BME280;40965;52.368;9.712;2023-04-27T03:36:18;101327.22;;;2.25;100.00
55068;BME280;40965;52.368;9.712;2023-04-27T03:38:45;101336.81;;;2.28;100.00
55068;BME280;40965;52.368;9.712;2023-04-27T03:41:11;101338.56;;;2.29;100.00
55068;BME280;40965;52.368;9.712;2023-04-27T03:43:38;101338.56;;;2.29;100.00
55068;BME280;40965;52.368;9.712;2023-04-27T03:46:04;101342.63;;;2.22;100.00
55068;BME280;40965;52.368;9.712;2023-04-27T03:48:31;101344.16;;;2.17;100.00
55068;BME280;40965;52.368;9.712;2023-04-27T03:50:59;101347.41;;;2.11;100.00
55068;BME280;40965;52.368;9.712;2023-04-27T03:53:26;101351.34;;;2.02;100.00
55068;BME280;40965;52.368;9.712;2023-04-27T03:55:52;101345.13;;;1.96;100.00
55068;BME280;40965;52.368;9.712;2023-04-27T03:58:19;101349.28;;;1.93;100.00
55068;BME280;40965;52.368;9.712;2023-04-27T04:00:45;101355.16;;;1.89;100.00
55068;BME280;40965;52.368;9.712;2023-04-27T04:03:12;101355.06;;;1.86;100.00
55068;BME280;40965;52.368;9.712;2023-04-27T04:05:39;101354.88;;;1.81;100.00
55068;BME280;40965;52.368;9.712;2023-04-27T04:08:05;101352.00;;;1.73;100.00
55068;BME280;40965;52.368;9.712;2023-04-27T04:10:32;101354.38;;;1.67;100.00
55068;BME280;40965;52.368;9.712;2023-04-27T04:12:58;101351.66;;;1.64;100.00
55068;BME280;40965;52.368;9.712;2023-04-27T04:15:25;101352.34;;;1.60;100.00
55068;BME280;40965;52.368;9.712;2023-04-27T04:17:52;101358.22;;;1.56;100.00
55068;BME280;40965;52.368;9.712;2023-04-27T04:20:18;101355.59;;;1.54;100.00
55068;BME280;40965;52.368;9.712;2023-04-27T04:22:45;101365.84;;;1.53;100.00
55068;BME280;40965;52.368;9.712;2023-04-27T04:25:12;101363.28;;;1.53;100.00
55068;BME280;40965;52.368;9.712;2023-04-27T04:27:39;101366.72;;;1.53;100.00
55068;BME280;40965;52.368;9.712;2023-04-27T04:30:06;101361.63;;;1.55;100.00
55068;BME280;40965;52.368;9.712;2023-04-27T04:32:34;101366.78;;;1.55;100.00
55068;BME280;40965;52.368;9.712;2023-04-27T04:35:04;101365.16;;;1.57;100.00
55068;BME280;40965;52.368;9.712;2023-04-27T04:37:34;101372.00;;;1.56;100.00
55068;BME280;40965;52.368;9.712;2023-04-27T04:40:05;101368.75;;;1.60;100.00
55068;BME280;40965;52.368;9.712;2023-04-27T04:42:35;101359.28;;;1.61;100.00
55068;BME280;40965;52.368;9.712;2023-04-27T04:45:02;101355.00;;;1.61;100.00
55068;BME280;40965;52.368;9.712;2023-04-27T04:47:29;101362.88;;;1.64;100.00
55068;BME280;40965;52.368;9.712;2023-04-27T04:49:58;101369.00;;;1.68;100.00
55068;BME280;40965;52.368;9.712;2023-04-27T04:52:25;101369.25;;;1.74;100.00
55068;BME280;40965;52.368;9.712;2023-04-27T04:54:52;101369.56;;;1.82;100.00
55068;BME280;40965;52.368;9.712;2023-04-27T04:57:18;101381.00;;;1.89;100.00
55068;BME280;40965;52.368;9.712;2023-04-27T04:59:45;101374.19;;;1.91;100.00
55068;BME280;40965;52.368;9.712;2023-04-27T05:02:11;101373.53;;;1.96;100.00
55068;BME280;40965;52.368;9.712;2023-04-27T05:04:38;101378.06;;;2.02;100.00
55068;BME280;40965;52.368;9.712;2023-04-27T05:07:04;101375.59;;;2.05;100.00
55068;BME280;40965;52.368;9.712;2023-04-27T05:09:31;101385.25;;;2.11;100.00
55068;BME280;40965;52.368;9.712;2023-04-27T05:12:00;101383.69;;;2.14;100.00
55068;BME280;40965;52.368;9.712;2023-04-27T05:14:26;101391.63;;;2.19;100.00
55068;BME280;40965;52.368;9.712;2023-04-27T05:16:53;101384.69;;;2.18;100.00
55068;BME280;40965;52.368;9.712;2023-04-27T05:19:20;101387.31;;;2.20;100.00
55068;BME280;40965;52.368;9.712;2023-04-27T05:21:46;101374.44;;;2.21;100.00
55068;BME280;40965;52.368;9.712;2023-04-27T05:24:13;101384.84;;;2.23;100.00
55068;BME280;40965;52.368;9.712;2023-04-27T05:26:41;101390.28;;;2.30;100.00
55068;BME280;40965;52.368;9.712;2023-04-27T05:29:08;101385.25;;;2.34;100.00
55068;BME280;40965;52.368;9.712;2023-04-27T05:31:36;101391.47;;;2.39;100.00
55068;BME280;40965;52.368;9.712;2023-04-27T05:34:03;101394.91;;;2.39;100.00
55068;BME280;40965;52.368;9.712;2023-04-27T05:36:30;101392.44;;;2.42;100.00
55068;BME280;40965;52.368;9.712;2023-04-27T05:38:56;101397.78;;;2.47;100.00
55068;BME280;40965;52.368;9.712;2023-04-27T05:41:23;101405.81;;;2.55;100.00
55068;BME280;40965;52.368;9.712;2023-04-27T05:43:50;101412.94;;;2.62;100.00
55068;BME280;40965;52.368;9.712;2023-04-27T05:46:17;101414.06;;;2.69;100.00
55068;BME280;40965;52.368;9.712;2023-04-27T05:48:45;101413.31;;;2.71;100.00
55068;BME280;40965;52.368;9.712;2023-04-27T05:51:11;101409.28;;;2.79;100.00
55068;BME280;40965;52.368;9.712;2023-04-27T05:53:39;101416.34;;;2.85;100.00
55068;BME280;40965;52.368;9.712;2023-04-27T05:56:06;101412.28;;;2.92;100.00
55068;BME280;40965;52.368;9.712;2023-04-27T05:58:32;101422.88;;;3.00;100.00
55068;BME280;40965;52.368;9.712;2023-04-27T06:01:00;101415.28;;;3.04;100.00
55068;BME280;40965;52.368;9.712;2023-04-27T06:03:28;101420.69;;;3.10;100.00
55068;BME280;40965;52.368;9.712;2023-04-27T06:05:59;101419.31;;;3.22;99.96
55068;BME280;40965;52.368;9.712;2023-04-27T06:08:26;101419.47;;;3.26;98.85
55068;BME280;40965;52.368;9.712;2023-04-27T06:10:53;101423.19;;;3.35;98.55
55068;BME280;40965;52.368;9.712;2023-04-27T06:13:20;101426.00;;;3.41;97.99
55068;BME280;40965;52.368;9.712;2023-04-27T06:15:47;101415.78;;;3.45;97.71
55068;BME280;40965;52.368;9.712;2023-04-27T06:18:13;101422.91;;;3.53;97.34
55068;BME280;40965;52.368;9.712;2023-04-27T06:20:40;101430.06;;;3.60;97.00
55068;BME280;40965;52.368;9.712;2023-04-27T06:23:07;101430.34;;;3.69;96.47
55068;BME280;40965;52.368;9.712;2023-04-27T06:25:33;101434.00;;;3.76;95.55
55068;BME280;40965;52.368;9.712;2023-04-27T06:28:02;101432.50;;;3.83;94.98
55068;BME280;40965;52.368;9.712;2023-04-27T06:30:29;101436.09;;;3.88;95.00
55068;BME280;40965;52.368;9.712;2023-04-27T06:32:56;101440.63;;;3.95;95.11
55068;BME280;40965;52.368;9.712;2023-04-27T06:35:25;101437.41;;;4.02;94.27
55068;BME280;40965;52.368;9.712;2023-04-27T06:37:51;101436.06;;;4.15;93.47
55068;BME280;40965;52.368;9.712;2023-04-27T06:40:23;101428.56;;;4.24;92.43
55068;BME280;40965;52.368;9.712;2023-04-27T06:42:51;101444.38;;;4.34;92.34
55068;BME280;40965;52.368;9.712;2023-04-27T06:45:18;101443.06;;;4.48;90.64
55068;BME280;40965;52.368;9.712;2023-04-27T06:47:46;101443.47;;;4.62;89.69
55068;BME280;40965;52.368;9.712;2023-04-27T06:50:13;101445.53;;;4.74;88.87
55068;BME280;40965;52.368;9.712;2023-04-27T06:52:40;101443.44;;;4.92;88.53
55068;BME280;40965;52.368;9.712;2023-04-27T06:55:07;101445.00;;;5.19;87.25
55068;BME280;40965;52.368;9.712;2023-04-27T06:57:33;101444.31;;;5.61;85.30
55068;BME280;40965;52.368;9.712;2023-04-27T07:00:01;101444.69;;;6.13;83.29
55068;BME280;40965;52.368;9.712;2023-04-27T07:02:29;101447.81;;;6.40;81.65
55068;BME280;40965;52.368;9.712;2023-04-27T07:04:55;101441.94;;;6.93;80.06
55068;BME280;40965;52.368;9.712;2023-04-27T07:07:22;101440.84;;;7.27;77.73
55068;BME280;40965;52.368;9.712;2023-04-27T07:09:48;101437.72;;;7.50;76.10
55068;BME280;40965;52.368;9.712;2023-04-27T07:12:15;101438.63;;;8.10;74.90
55068;BME280;40965;52.368;9.712;2023-04-27T07:14:41;101433.50;;;8.84;72.89
55068;BME280;40965;52.368;9.712;2023-04-27T07:17:08;101434.09;;;9.49;68.14
55068;BME280;40965;52.368;9.712;2023-04-27T07:19:35;101437.81;;;9.79;66.89
55068;BME280;40965;52.368;9.712;2023-04-27T07:22:02;101438.00;;;10.16;65.64
55068;BME280;40965;52.368;9.712;2023-04-27T07:24:28;101434.69;;;10.47;61.90
55068;BME280;40965;52.368;9.712;2023-04-27T07:26:55;101429.50;;;10.64;60.90
55068;BME280;40965;52.368;9.712;2023-04-27T07:29:23;101431.19;;;10.41;60.40
55068;BME280;40965;52.368;9.712;2023-04-27T07:31:52;101428.75;;;11.03;60.43
55068;BME280;40965;52.368;9.712;2023-04-27T07:34:19;101434.88;;;11.53;57.03
55068;BME280;40965;52.368;9.712;2023-04-27T07:36:46;101433.97;;;11.88;53.00
55068;BME280;40965;52.368;9.712;2023-04-27T07:39:12;101433.97;;;11.88;50.67
55068;BME280;40965;52.368;9.712;2023-04-27T07:41:39;101433.97;;;12.13;49.35
55068;BME280;40965;52.368;9.712;2023-04-27T07:44:06;101441.81;;;12.27;49.03
55068;BME280;40965;52.368;9.712;2023-04-27T07:46:33;101428.41;;;12.80;47.58
55068;BME280;40965;52.368;9.712;2023-04-27T07:49:00;101438.06;;;12.79;46.99
55068;BME280;40965;52.368;9.712;2023-04-27T07:51:27;101435.72;;;11.94;47.30
55068;BME280;40965;52.368;9.712;2023-04-27T07:53:53;101441.88;;;11.09;48.06
55068;BME280;40965;52.368;9.712;2023-04-27T07:56:20;101447.06;;;10.88;49.82
55068;BME280;40965;52.368;9.712;2023-04-27T07:58:47;101435.78;;;11.37;47.99
55068;BME280;40965;52.368;9.712;2023-04-27T08:01:13;101433.06;;;10.84;48.63
55068;BME280;40965;52.368;9.712;2023-04-27T08:03:40;101432.06;;;10.47;49.10
55068;BME280;40965;52.368;9.712;2023-04-27T08:06:07;101437.09;;;10.06;49.62
55068;BME280;40965;52.368;9.712;2023-04-27T08:08:33;101427.09;;;9.47;49.00
55068;BME280;40965;52.368;9.712;2023-04-27T08:11:00;101428.38;;;8.98;51.13
55068;BME280;40965;52.368;9.712;2023-04-27T08:13:27;101429.22;;;8.92;51.68
55068;BME280;40965;52.368;9.712;2023-04-27T08:15:53;101430.16;;;10.19;49.50
55068;BME280;40965;52.368;9.712;2023-04-27T08:18:23;101425.25;;;11.99;46.22
55068;BME280;40965;52.368;9.712;2023-04-27T08:20:50;101421.81;;;13.53;43.92
55068;BME280;40965;52.368;9.712;2023-04-27T08:23:16;101413.66;;;14.54;41.38
55068;BME280;40965;52.368;9.712;2023-04-27T08:25:43;101414.09;;;15.45;38.72
55068;BME280;40965;52.368;9.712;2023-04-27T08:28:09;101415.75;;;14.95;38.76
55068;BME280;40965;52.368;9.712;2023-04-27T08:30:36;101421.78;;;13.55;41.88
55068;BME280;40965;52.368;9.712;2023-04-27T08:33:03;101419.00;;;12.37;43.55
55068;BME280;40965;52.368;9.712;2023-04-27T08:35:29;101419.13;;;11.77;44.10
55068;BME280;40965;52.368;9.712;2023-04-27T08:37:56;101418.22;;;11.95;42.59
55068;BME280;40965;52.368;9.712;2023-04-27T08:40:22;101417.38;;;12.05;43.30
55068;BME280;40965;52.368;9.712;2023-04-27T08:42:54;101418.97;;;13.77;39.24
55068;BME280;40965;52.368;9.712;2023-04-27T08:45:23;101410.69;;;14.81;37.64
55068;BME280;40965;52.368;9.712;2023-04-27T08:47:51;101411.56;;;15.91;35.75
55068;BME280;40965;52.368;9.712;2023-04-27T08:50:18;101397.63;;;16.67;34.14
55068;BME280;40965;52.368;9.712;2023-04-27T08:52:46;101402.56;;;17.58;32.03
55068;BME280;40965;52.368;9.712;2023-04-27T08:55:13;101397.66;;;17.75;32.04
55068;BME280;40965;52.368;9.712;2023-04-27T08:57:40;101399.06;;;15.50;34.99
55068;BME280;40965;52.368;9.712;2023-04-27T09:00:07;101412.94;;;13.64;38.02
55068;BME280;40965;52.368;9.712;2023-04-27T09:02:44;101403.16;;;12.57;40.32
55068;BME280;40965;52.368;9.712;2023-04-27T09:05:19;101410.44;;;11.67;41.70
55068;BME280;40965;52.368;9.712;2023-04-27T09:08:00;101404.25;;;12.02;41.27
55068;BME280;40965;52.368;9.712;2023-04-27T09:10:30;101405.16;;;14.32;38.80
55068;BME280;40965;52.368;9.712;2023-04-27T09:13:18;101408.28;;;15.25;36.41
55068;BME280;40965;52.368;9.712;2023-04-27T09:15:46;101397.16;;;16.06;35.58
55068;BME280;40965;52.368;9.712;2023-04-27T09:18:21;101395.34;;;16.91;33.29
55068;BME280;40965;52.368;9.712;2023-04-27T09:20:50;101400.84;;;16.81;33.50
55068;BME280;40965;52.368;9.712;2023-04-27T09:23:25;101404.41;;;15.96;33.77
55068;BME280;40965;52.368;9.712;2023-04-27T09:25:53;101403.09;;;15.18;35.08
55068;BME280;40965;52.368;9.712;2023-04-27T09:28:22;101402.66;;;15.95;34.20
55068;BME280;40965;52.368;9.712;2023-04-27T09:30:57;101398.44;;;17.10;32.89
55068;BME280;40965;52.368;9.712;2023-04-27T09:33:31;101403.19;;;18.60;30.51
55068;BME280;40965;52.368;9.712;2023-04-27T09:36:01;101386.31;;;20.22;28.79
55068;BME280;40965;52.368;9.712;2023-04-27T09:38:30;101381.78;;;20.94;27.35
55068;BME280;40965;52.368;9.712;2023-04-27T09:40:57;101383.84;;;21.51;25.55
55068;BME280;40965;52.368;9.712;2023-04-27T09:43:24;101382.59;;;21.80;25.96
55068;BME280;40965;52.368;9.712;2023-04-27T09:45:56;101390.59;;;22.58;25.10
55068;BME280;40965;52.368;9.712;2023-04-27T09:48:24;101377.69;;;22.87;24.03
55068;BME280;40965;52.368;9.712;2023-04-27T09:50:52;101380.38;;;22.68;23.72
55068;BME280;40965;52.368;9.712;2023-04-27T09:53:21;101371.72;;;22.62;22.86
55068;BME280;40965;52.368;9.712;2023-04-27T10:01:53;101372.16;;;21.32;23.54
55068;BME280;40965;52.368;9.712;2023-04-27T10:04:28;101375.47;;;21.80;24.46
55068;BME280;40965;52.368;9.712;2023-04-27T10:07:16;101373.53;;;22.99;23.71
55068;BME280;40965;52.368;9.712;2023-04-27T10:09:49;101373.03;;;23.44;21.45
55068;BME280;40965;52.368;9.712;2023-04-27T10:12:18;101370.81;;;24.04;21.13
55068;BME280;40965;52.368;9.712;2023-04-27T10:14:48;101375.47;;;23.14;20.64
55068;BME280;40965;52.368;9.712;2023-04-27T10:17:28;101377.94;;;21.64;22.22
55068;BME280;40965;52.368;9.712;2023-04-27T10:20:09;101375.59;;;21.77;22.61
55068;BME280;40965;52.368;9.712;2023-04-27T10:22:45;101369.84;;;23.01;21.21
55068;BME280;40965;52.368;9.712;2023-04-27T10:27:59;101382.50;;;19.28;25.32
55068;BME280;40965;52.368;9.712;2023-04-27T10:30:36;101385.50;;;18.01;27.14
55068;BME280;40965;52.368;9.712;2023-04-27T10:33:09;101386.50;;;17.29;28.34
55068;BME280;40965;52.368;9.712;2023-04-27T10:35:41;101387.06;;;16.67;29.05
55068;BME280;40965;52.368;9.712;2023-04-27T10:38:19;101383.47;;;16.30;29.24
55068;BME280;40965;52.368;9.712;2023-04-27T10:40:58;101382.56;;;15.37;30.74
55068;BME280;40965;52.368;9.712;2023-04-27T10:43:28;101388.13;;;14.58;31.46
55068;BME280;40965;52.368;9.712;2023-04-27T10:46:13;101401.53;;;14.41;31.85
55068;BME280;40965;52.368;9.712;2023-04-27T10:48:41;101388.81;;;14.05;31.93
55068;BME280;40965;52.368;9.712;2023-04-27T10:51:08;101393.31;;;13.94;31.51
55068;BME280;40965;52.368;9.712;2023-04-27T10:53:36;101398.75;;;13.77;31.43
55068;BME280;40965;52.368;9.712;2023-04-27T10:56:06;101388.81;;;14.05;30.75
55068;BME280;40965;52.368;9.712;2023-04-27T10:58:36;101388.25;;;14.50;30.20
55068;BME280;40965;52.368;9.712;2023-04-27T11:01:06;101385.78;;;15.02;29.80
55068;BME280;40965;52.368;9.712;2023-04-27T11:03:32;101376.69;;;15.21;29.52
55068;BME280;40965;52.368;9.712;2023-04-27T11:06:02;101380.25;;;15.16;29.54
55068;BME280;40965;52.368;9.712;2023-04-27T11:08:30;101374.47;;;14.94;30.03
55068;BME280;40965;52.368;9.712;2023-04-27T11:10:58;101376.00;;;15.09;29.95
55068;BME280;40965;52.368;9.712;2023-04-27T11:13:25;101372.44;;;15.11;29.77
55068;BME280;40965;52.368;9.712;2023-04-27T11:15:55;101375.25;;;15.00;30.20
55068;BME280;40965;52.368;9.712;2023-04-27T11:18:29;101368.53;;;16.68;27.92
55068;BME280;40965;52.368;9.712;2023-04-27T11:21:17;101367.44;;;18.45;26.59
55068;BME280;40965;52.368;9.712;2023-04-27T11:23:45;101358.72;;;20.48;24.63
55068;BME280;40965;52.368;9.712;2023-04-27T11:26:19;101357.16;;;22.51;22.69
55068;BME280;40965;52.368;9.712;2023-04-27T11:29:02;101359.09;;;24.06;20.26
55068;BME280;40965;52.368;9.712;2023-04-27T11:31:43;101359.44;;;25.26;20.18
55068;BME280;40965;52.368;9.712;2023-04-27T11:34:17;101358.41;;;26.32;17.91
55068;BME280;40965;52.368;9.712;2023-04-27T11:37:02;101351.88;;;26.63;17.60
55068;BME280;40965;52.368;9.712;2023-04-27T11:39:35;101351.41;;;27.38;18.04
55068;BME280;40965;52.368;9.712;2023-04-27T11:42:23;101349.97;;;28.10;17.73
55068;BME280;40965;52.368;9.712;2023-04-27T11:44:59;101362.59;;;28.10;18.44
55068;BME280;40965;52.368;9.712;2023-04-27T11:47:31;101353.50;;;27.33;18.48
55068;BME280;40965;52.368;9.712;2023-04-27T11:50:01;101347.44;;;27.04;18.56
55068;BME280;40965;52.368;9.712;2023-04-27T11:52:29;101349.06;;;25.06;18.41
55068;BME280;40965;52.368;9.712;2023-04-27T11:54:58;101354.94;;;23.50;19.82
55068;BME280;40965;52.368;9.712;2023-04-27T11:57:27;101354.94;;;22.02;20.89
55068;BME280;40965;52.368;9.712;2023-04-27T11:59:56;101345.63;;;21.52;21.65
55068;BME280;40965;52.368;9.712;2023-04-27T12:02:29;101351.72;;;20.46;23.32
55068;BME280;40965;52.368;9.712;2023-04-27T12:04:57;101355.56;;;19.14;24.65
55068;BME280;40965;52.368;9.712;2023-04-27T12:07:24;101351.56;;;17.82;26.75
55068;BME280;40965;52.368;9.712;2023-04-27T12:09:51;101366.13;;;16.97;27.74
55068;BME280;40965;52.368;9.712;2023-04-27T12:12:17;101354.66;;;16.59;28.04
55068;BME280;40965;52.368;9.712;2023-04-27T12:14:46;101362.81;;;16.49;28.26
55068;BME280;40965;52.368;9.712;2023-04-27T12:17:13;101359.06;;;16.17;28.90
55068;BME280;40965;52.368;9.712;2023-04-27T12:19:40;101353.66;;;16.24;28.81
55068;BME280;40965;52.368;9.712;2023-04-27T12:22:06;101353.69;;;16.22;28.59
55068;BME280;40965;52.368;9.712;2023-04-27T12:24:33;101349.75;;;15.99;28.93
55068;BME280;40965;52.368;9.712;2023-04-27T12:27:00;101350.09;;;15.84;28.84
55068;BME280;40965;52.368;9.712;2023-04-27T12:29:27;101342.75;;;18.43;26.99
55068;BME280;40965;52.368;9.712;2023-04-27T12:31:53;101341.41;;;21.25;23.60
55068;BME280;40965;52.368;9.712;2023-04-27T12:34:20;101334.75;;;23.26;21.74
55068;BME280;40965;52.368;9.712;2023-04-27T12:36:46;101333.69;;;22.00;22.11
55068;BME280;40965;52.368;9.712;2023-04-27T12:39:18;101338.09;;;20.31;23.04
55068;BME280;40965;52.368;9.712;2023-04-27T12:41:46;101337.06;;;19.63;23.91
55068;BME280;40965;52.368;9.712;2023-04-27T12:44:15;101338.63;;;19.43;24.39
55068;BME280;40965;52.368;9.712;2023-04-27T12:46:43;101343.22;;;18.58;25.25
55068;BME280;40965;52.368;9.712;2023-04-27T12:49:12;101327.03;;;19.71;24.00
55068;BME280;40965;52.368;9.712;2023-04-27T12:51:38;101326.56;;;21.81;21.84
55068;BME280;40965;52.368;9.712;2023-04-27T12:54:05;101320.97;;;23.52;20.23
55068;BME280;40965;52.368;9.712;2023-04-27T12:56:33;101317.88;;;24.74;19.93
55068;BME280;40965;52.368;9.712;2023-04-27T12:59:00;101317.50;;;25.85;18.59
55068;BME280;40965;52.368;9.712;2023-04-27T13:01:27;101311.78;;;26.74;18.42
55068;BME280;40965;52.368;9.712;2023-04-27T13:03:59;101307.41;;;27.39;16.50
55068;BME280;40965;52.368;9.712;2023-04-27T13:06:27;101308.53;;;28.00;17.21